Terminal Aerodrome Forecast
Issued by NWS Topeka, KS

Home | Current Version | Previous Version | Graphics & Text | Print | Product List | Glossary On
Versions: 1 2 3 4 5 6 7 8 9 10 11 12
000
FTUS43 KTOP 270500
TAFTOP
TAF
KTOP 270520Z 2706/2806 35006KT P6SM SCT150
     FM271400 34013G20KT P6SM SCT150
     FM280100 35004KT P6SM SKC=

USA.gov is the U.S. government's official web portal to all federal, state and local government web resources and services.